Time;durP1;ratioP1;P1;durP2;ratioP2;P2;SDS_P1;SDS_P2;PMS_P1;PMS_P2;Temp;Humidity;BMP_temperature;BMP_pressure;BME280_temperature;BME280_humidity;BME280_pressure;Samples;Min_cycle;Max_cycle;Signal;HPM_P1;HPM_P2
2024/04/21 08:12:13;;;;;;;9.20;1.10;;;;;;;18.63;69.14;101277.13;5610250;25;20086;-62
2024/04/21 08:14:43;;;;;;;6.07;0.80;;;;;;;18.74;68.66;101275.47;5599373;25;20073;-60
2024/04/21 08:17:14;;;;;;;3.35;0.90;;;;;;;18.71;68.86;101282.78;5600862;26;20001;-60
2024/04/21 08:19:44;;;;;;;2.60;0.98;;;;;;;18.57;68.97;101274.91;5604230;26;20002;-60
2024/04/21 08:22:14;;;;;;;4.13;0.70;;;;;;;18.66;69.07;101279.59;5604376;26;20009;-60
2024/04/21 08:24:44;;;;;;;3.80;1.10;;;;;;;18.67;68.89;101297.25;5601248;26;20731;-60
2024/04/21 08:27:15;;;;;;;5.38;1.00;;;;;;;18.71;68.33;101282.78;5560772;26;20013;-60
2024/04/21 08:29:45;;;;;;;4.20;1.10;;;;;;;18.72;68.18;101284.47;5528478;26;20014;-60
2024/04/21 08:32:15;;;;;;;1.80;0.90;;;;;;;18.86;67.73;101287.94;5527718;26;20011;-60
2024/04/21 08:34:46;;;;;;;1.90;1.00;;;;;;;18.97;67.25;101288.03;5526927;26;19999;-60
2024/04/21 08:37:16;;;;;;;1.42;1.00;;;;;;;18.87;67.52;101297.63;5502033;26;20050;-59
2024/04/21 08:39:48;;;;;;;1.75;0.95;;;;;;;18.94;67.75;101293.56;5525412;26;20003;-60
2024/04/21 08:42:18;;;;;;;1.42;0.80;;;;;;;18.98;67.58;101295.09;5454766;26;20039;-59
2024/04/21 08:44:49;;;;;;;1.50;0.93;;;;;;;18.94;67.83;101293.56;5437699;26;20008;-60
2024/04/21 08:47:20;;;;;;;1.65;1.00;;;;;;;18.99;67.70;101302.09;5504848;26;20007;-59
2024/04/21 08:49:53;;;;;;;1.10;0.80;;;;;;;18.95;67.10;101300.59;5526799;26;20046;-60
2024/04/21 08:52:23;;;;;;;2.15;0.90;;;;;;;18.86;67.09;101303.03;5528664;26;20010;-59
2024/04/21 08:54:54;;;;;;;3.33;1.02;;;;;;;18.93;67.56;101307.00;5526667;26;20828;-59
2024/04/21 08:57:25;;;;;;;3.88;1.00;;;;;;;18.91;67.50;101304.41;5521496;26;20107;-59
2024/04/21 08:59:58;;;;;;;5.30;1.20;;;;;;;19.00;67.34;101302.94;5522814;26;20125;-60
2024/04/21 09:02:30;;;;;;;3.25;1.20;;;;;;;19.11;66.96;101311.06;5501105;26;20019;-59
2024/04/21 09:05:00;;;;;;;1.88;1.00;;;;;;;19.14;66.81;101310.84;5454096;26;22379;-60
2024/04/21 09:07:31;;;;;;;4.43;1.10;;;;;;;19.05;66.74;101314.09;5469069;26;21823;-59
2024/04/21 09:10:01;;;;;;;3.30;1.10;;;;;;;19.11;66.63;101311.88;5471338;26;20102;-60
2024/04/21 09:12:32;;;;;;;2.10;1.00;;;;;;;19.12;66.67;101316.25;5461910;26;20007;-60
2024/04/21 09:15:03;;;;;;;1.85;1.10;;;;;;;19.09;66.44;101319.13;5522367;26;20273;-59
2024/04/21 09:17:33;;;;;;;3.20;1.00;;;;;;;19.07;66.59;101317.56;5527698;26;20620;-60
2024/04/21 09:20:04;;;;;;;1.55;1.00;;;;;;;19.08;66.22;101324.56;5527728;26;20011;-59
2024/04/21 09:22:34;;;;;;;2.22;0.90;;;;;;;19.04;66.37;101315.06;5517319;26;22125;-60
2024/04/21 09:25:05;;;;;;;2.03;1.00;;;;;;;19.05;66.14;101316.78;5498080;26;20007;-60
2024/04/21 09:27:35;;;;;;;2.47;1.05;;;;;;;19.07;66.24;101320.22;5508443;26;20008;-60
2024/04/21 09:30:06;;;;;;;1.13;0.90;;;;;;;18.92;66.45;101331.88;5506123;26;20773;-60
2024/04/21 09:32:36;;;;;;;1.25;0.90;;;;;;;18.90;66.50;101333.78;5510627;26;20011;-59
2024/04/21 09:35:07;;;;;;;2.22;1.00;;;;;;;18.88;66.29;101331.22;5503109;26;22056;-60
2024/04/21 09:37:42;;;;;;;1.77;1.00;;;;;;;18.88;66.52;101333.00;5487906;26;20011;-60
2024/04/21 09:40:14;;;;;;;2.97;1.02;;;;;;;18.88;66.31;101341.00;5541568;26;20122;-59
2024/04/21 09:42:47;;;;;;;1.50;1.00;;;;;;;18.91;66.04;101335.50;5548802;26;20008;-60
2024/04/21 09:45:17;;;;;;;2.42;1.08;;;;;;;18.84;66.18;101339.50;5544046;26;19997;-60
2024/04/21 09:47:48;;;;;;;2.95;0.95;;;;;;;18.84;66.10;101344.81;5548635;26;20339;-59
2024/04/21 09:50:20;;;;;;;1.38;1.10;;;;;;;18.88;66.33;101341.00;5552921;26;19996;-59
2024/04/21 09:52:52;;;;;;;1.52;1.10;;;;;;;18.90;66.23;101344.44;5549096;26;19996;-60
2024/04/21 09:55:24;;;;;;;1.45;0.95;;;;;;;18.87;66.18;101352.59;5554642;26;20006;-59
2024/04/21 09:58:01;;;;;;;1.23;0.90;;;;;;;18.87;66.14;101350.78;5552473;26;20325;-59
2024/04/21 10:00:31;;;;;;;2.08;1.20;;;;;;;18.90;65.96;101355.06;5550338;26;19996;-58
2024/04/21 10:03:05;;;;;;;1.33;1.00;;;;;;;18.96;66.25;101354.66;5552513;26;20353;-60
2024/04/21 10:05:37;;;;;;;1.13;0.90;;;;;;;19.03;65.79;101361.25;5553908;26;20582;-60
2024/04/21 10:08:08;;;;;;;1.88;1.20;;;;;;;18.97;66.05;101365.16;5553354;26;19992;-60
2024/04/21 10:10:40;;;;;;;2.40;1.13;;;;;;;19.09;65.82;101364.34;5553169;26;20334;-58
2024/04/21 10:13:10;;;;;;;2.72;1.10;;;;;;;19.12;65.74;101363.31;5552668;26;20028;-61
2024/04/21 10:15:42;;;;;;;3.20;1.02;;;;;;;19.07;66.02;101365.44;5553637;26;20358;-59
2024/04/21 10:18:18;;;;;;;1.70;0.90;;;;;;;19.04;66.15;101361.16;5548744;26;20008;-58
2024/04/21 10:20:49;;;;;;;1.45;0.90;;;;;;;19.06;65.79;101369.00;5549519;26;19992;-60
2024/04/21 10:23:20;;;;;;;2.00;1.10;;;;;;;18.94;65.91;101365.38;5554963;26;20048;-59
2024/04/21 10:25:51;;;;;;;1.15;0.90;;;;;;;19.02;65.61;101371.06;5542708;26;20085;-60
2024/04/21 10:28:27;;;;;;;1.50;0.90;;;;;;;18.99;65.93;101360.63;5550023;26;20462;-58
2024/04/21 10:31:08;;;;;;;1.60;1.10;;;;;;;19.00;65.96;101367.66;5494304;26;20094;-59
2024/04/21 10:33:40;;;;;;;1.20;0.82;;;;;;;19.08;66.00;101370.63;5536916;26;20440;-59
2024/04/21 10:36:20;;;;;;;2.88;1.00;;;;;;;19.01;66.23;101369.34;5531051;26;19996;-59
2024/04/21 10:38:55;;;;;;;4.60;0.90;;;;;;;19.01;65.73;101373.81;5530489;26;20339;-60
2024/04/21 10:41:29;;;;;;;3.22;0.90;;;;;;;19.00;65.93;101372.97;5534936;26;20021;-60
2024/04/21 10:44:00;;;;;;;1.73;1.00;;;;;;;18.98;65.63;101366.03;5532175;26;19992;-60
2024/04/21 10:46:30;;;;;;;1.20;0.95;;;;;;;19.01;65.73;101371.13;5539894;26;20464;-60
2024/04/21 10:49:00;;;;;;;1.25;1.00;;;;;;;19.07;65.71;101368.91;5528951;26;19997;-60
2024/04/21 10:51:32;;;;;;;2.00;0.88;;;;;;;19.10;65.71;101374.03;5528921;26;20008;-60
2024/04/21 10:54:04;;;;;;;1.33;0.90;;;;;;;19.07;65.69;101370.75;5529216;26;20015;-60
2024/04/21 10:56:36;;;;;;;3.60;0.90;;;;;;;19.04;65.84;101370.94;5499340;26;20503;-60
2024/04/21 10:59:07;;;;;;;1.10;0.95;;;;;;;19.10;65.83;101371.38;5530230;26;20008;-60
2024/04/21 11:01:37;;;;;;;1.10;0.90;;;;;;;19.09;65.62;101374.16;5530152;26;20001;-60
2024/04/21 11:04:08;;;;;;;1.53;0.90;;;;;;;19.04;65.80;101373.59;5532943;26;20007;-59
2024/04/21 11:06:39;;;;;;;2.63;1.08;;;;;;;19.09;65.54;101372.31;5529337;26;20679;-59
2024/04/21 11:09:10;;;;;;;1.83;1.00;;;;;;;19.05;65.51;101375.28;5532722;26;20671;-59
2024/04/21 11:11:41;;;;;;;1.05;0.82;;;;;;;19.07;65.44;101374.25;5534420;26;20579;-59
2024/04/21 11:14:11;;;;;;;1.50;1.00;;;;;;;19.13;65.30;101376.47;5534043;26;20004;-60
2024/04/21 11:16:50;;;;;;;1.10;0.80;;;;;;;19.17;65.39;101379.78;5532137;26;20023;-59
2024/04/21 11:19:21;;;;;;;1.17;0.80;;;;;;;19.26;65.07;101368.53;5537128;26;19992;-60
2024/04/21 11:21:51;;;;;;;1.52;0.85;;;;;;;19.18;65.27;101376.19;5529149;26;20004;-60
2024/04/21 11:24:21;;;;;;;1.50;0.90;;;;;;;19.14;65.21;101374.69;5537209;26;20082;-59
2024/04/21 11:26:52;;;;;;;1.30;0.90;;;;;;;19.13;65.43;101368.50;5528649;26;20011;-60
2024/04/21 11:29:22;;;;;;;2.78;1.00;;;;;;;19.12;65.46;101371.28;5527017;26;20011;-59
2024/04/21 11:31:52;;;;;;;0.95;0.70;;;;;;;19.12;65.23;101372.13;5529930;26;20000;-59
2024/04/21 11:34:23;;;;;;;1.77;1.10;;;;;;;19.11;65.22;101380.22;5529718;26;20021;-59
2024/04/21 11:36:53;;;;;;;1.77;1.00;;;;;;;19.08;65.47;101381.25;5527727;26;19992;-60
2024/04/21 11:39:23;;;;;;;1.75;1.00;;;;;;;19.12;65.06;101377.44;5534058;26;20802;-60
2024/04/21 11:41:54;;;;;;;1.50;1.00;;;;;;;19.07;65.12;101371.59;5530719;26;19996;-59
2024/04/21 11:44:25;;;;;;;1.00;0.70;;;;;;;19.03;65.33;101379.88;5532954;26;20081;-60
2024/04/21 11:46:59;;;;;;;2.15;0.90;;;;;;;18.97;65.70;101375.81;5528038;26;20036;-59
2024/04/21 11:49:30;;;;;;;1.45;0.90;;;;;;;18.93;65.71;101376.97;5530014;26;20039;-60
2024/04/21 11:52:00;;;;;;;1.70;0.88;;;;;;;18.97;65.67;101366.97;5531502;26;20000;-60
2024/04/21 11:54:30;;;;;;;2.22;1.00;;;;;;;19.02;65.39;101370.19;5535620;26;20000;-59
2024/04/21 11:57:01;;;;;;;1.48;0.80;;;;;;;19.00;65.48;101372.97;5530808;26;20065;-60
2024/04/21 11:59:31;;;;;;;2.83;0.90;;;;;;;18.94;65.79;101372.50;5530287;26;20063;-60
2024/04/21 12:02:01;;;;;;;1.37;0.80;;;;;;;18.95;65.74;101375.06;5535310;26;20015;-61
2024/04/21 12:04:32;;;;;;;3.22;0.73;;;;;;;18.92;65.67;101371.78;5534788;26;20260;-60
2024/04/21 12:07:03;;;;;;;0.70;0.60;;;;;;;18.92;65.48;101379.75;5532610;26;20101;-60
2024/04/21 12:09:33;;;;;;;1.95;0.88;;;;;;;18.98;65.46;101374.88;5532869;26;20197;-60
2024/04/21 12:12:04;;;;;;;1.50;0.98;;;;;;;18.97;65.75;101374.97;5538071;26;20001;-60
2024/04/21 12:14:34;;;;;;;1.02;0.75;;;;;;;18.98;65.58;101374.00;5531348;26;20015;-60
2024/04/21 12:17:04;;;;;;;1.17;0.90;;;;;;;18.96;65.72;101367.94;5527207;26;21611;-59
2024/04/21 12:19:35;;;;;;;1.20;0.80;;;;;;;18.95;65.49;101368.91;5530793;26;20045;-60
2024/04/21 12:22:05;;;;;;;3.10;1.35;;;;;;;18.95;65.62;101366.25;5535042;26;20858;-60
2024/04/21 12:24:35;;;;;;;1.98;0.82;;;;;;;18.93;65.55;101369.00;5533160;26;20012;-61
2024/04/21 12:27:05;;;;;;;0.85;0.70;;;;;;;18.97;65.35;101367.81;5532817;26;20049;-59
2024/04/21 12:29:36;;;;;;;1.02;0.77;;;;;;;18.93;65.76;101365.50;5532831;26;20019;-60
2024/04/21 12:32:06;;;;;;;2.83;0.88;;;;;;;18.93;65.69;101365.50;5526746;26;20090;-60
2024/04/21 12:34:38;;;;;;;1.13;0.85;;;;;;;18.91;65.51;101378.03;5529579;26;20480;-61
2024/04/21 12:37:08;;;;;;;1.10;0.77;;;;;;;18.90;65.60;101373.69;5525483;26;20012;-60
2024/04/21 12:39:39;;;;;;;1.00;0.85;;;;;;;18.91;65.73;101378.88;5522716;26;20057;-59
2024/04/21 12:42:09;;;;;;;1.27;0.90;;;;;;;18.90;65.90;101374.50;5529866;26;20004;-60
2024/04/21 12:44:39;;;;;;;1.52;0.80;;;;;;;18.96;65.36;101381.25;5533100;26;20015;-60
2024/04/21 12:47:10;;;;;;;1.83;0.85;;;;;;;18.89;65.63;101369.28;5541130;26;20331;-60
2024/04/21 12:49:40;;;;;;;1.40;0.88;;;;;;;18.90;65.54;101373.69;5531734;26;20502;-60
2024/04/21 12:52:11;;;;;;;1.20;0.90;;;;;;;18.88;65.79;101373.78;5538559;26;20458;-58
2024/04/21 12:54:41;;;;;;;1.10;0.80;;;;;;;18.88;65.39;101373.78;5530949;26;20071;-60
2024/04/21 12:57:11;;;;;;;1.33;0.73;;;;;;;18.86;65.73;101369.50;5530811;26;19996;-60
2024/04/21 12:59:43;;;;;;;1.73;0.93;;;;;;;18.91;65.19;101354.09;5533367;26;20007;-60
2024/04/21 13:02:17;;;;;;;1.65;0.80;;;;;;;18.94;65.25;101362.72;5535503;26;20005;-61
2024/04/21 13:04:47;;;;;;;1.25;0.80;;;;;;;18.90;65.37;101355.91;5539199;26;19996;-60
2024/04/21 13:07:18;;;;;;;12.93;1.60;;;;;;;18.89;65.21;101358.66;5534505;26;20941;-60
2024/04/21 13:09:48;;;;;;;3.97;0.98;;;;;;;18.93;64.89;101362.84;5542543;26;20676;-60
2024/04/21 13:12:20;;;;;;;5.60;1.10;;;;;;;18.84;64.69;101360.78;5530966;26;19996;-61
2024/04/21 13:14:54;;;;;;;3.83;1.10;;;;;;;18.78;64.42;101353.22;5537537;26;20647;-60
2024/04/21 13:17:24;;;;;;;3.30;0.90;;;;;;;18.82;64.40;101355.56;5542020;26;19996;-60
2024/04/21 13:19:54;;;;;;;5.13;1.10;;;;;;;18.88;64.31;101351.63;5529166;26;19992;-60
2024/04/21 13:22:24;;;;;;;2.67;0.90;;;;;;;18.85;64.07;101349.19;5534492;26;20494;-60
2024/04/21 13:24:55;;;;;;;3.07;0.97;;;;;;;18.82;64.38;101355.56;5529739;26;20258;-60
2024/04/21 13:27:25;;;;;;;3.03;0.90;;;;;;;18.89;64.35;101356.84;5529402;26;20231;-60
2024/04/21 13:29:55;;;;;;;1.95;0.77;;;;;;;18.88;64.20;101363.13;5537620;26;20083;-60
2024/04/21 13:32:25;;;;;;;1.60;0.93;;;;;;;18.90;64.28;101357.72;5534842;26;20000;-60
2024/04/21 13:34:56;;;;;;;1.00;0.80;;;;;;;18.95;64.47;101363.59;5530698;26;20271;-60
2024/04/21 13:37:26;;;;;;;2.92;0.80;;;;;;;18.95;64.29;101361.75;5530168;26;20303;-61
2024/04/21 13:39:57;;;;;;;1.15;0.90;;;;;;;18.98;64.27;101360.72;5537043;26;20068;-58
2024/04/21 13:42:27;;;;;;;1.55;0.90;;;;;;;18.94;64.49;101348.59;5539279;26;20004;-61
2024/04/21 13:44:57;;;;;;;1.60;0.90;;;;;;;18.91;64.00;101351.44;5531493;26;20665;-60
2024/04/21 13:47:28;;;;;;;3.80;0.87;;;;;;;18.88;64.83;101351.63;5532757;26;20263;-57
2024/04/21 13:49:58;;;;;;;4.90;0.95;;;;;;;18.86;64.73;101358.88;5460600;26;20243;-60
2024/04/21 13:57:35;;;;;;;2.50;1.40;;;;;;;8.91;54.14;101412.81;5573653;25;20314;-73
2024/04/21 14:00:06;;;;;;;3.40;1.52;;;;;;;7.94;54.13;101422.91;5577027;26;20018;-74
2024/04/21 14:02:36;;;;;;;3.85;1.50;;;;;;;7.36;54.96;101427.53;5575730;26;20034;-72
2024/04/21 14:05:07;;;;;;;2.63;1.25;;;;;;;7.51;55.10;101433.31;5603343;26;20329;-74
2024/04/21 14:07:37;;;;;;;3.35;1.50;;;;;;;7.30;53.34;101427.63;5609494;26;20353;-74
2024/04/21 14:10:07;;;;;;;3.50;1.60;;;;;;;7.07;54.08;101432.38;5597013;26;19995;-74
2024/04/21 14:12:38;;;;;;;3.70;1.70;;;;;;;6.94;55.01;101426.53;5611001;26;20494;-74
2024/04/21 14:15:08;;;;;;;3.47;1.40;;;;;;;6.91;53.49;101423.97;5606737;26;20000;-74
2024/04/21 14:17:38;;;;;;;2.60;1.27;;;;;;;7.23;52.65;101421.69;5601167;26;20090;-74
2024/04/21 14:20:09;;;;;;;4.10;1.48;;;;;;;7.30;53.56;101407.63;5589046;26;20047;-73
2024/04/21 14:22:39;;;;;;;2.45;1.30;;;;;;;7.54;53.96;101412.38;5509903;26;20050;-72
2024/04/21 14:25:09;;;;;;;2.53;1.27;;;;;;;7.80;52.96;101406.66;5487708;26;21287;-73
2024/04/21 14:27:40;;;;;;;2.53;1.35;;;;;;;7.75;52.99;101408.50;5508476;26;20516;-74
2024/04/21 14:30:10;;;;;;;3.22;1.40;;;;;;;7.50;54.43;101409.88;5504296;26;20007;-73
2024/04/21 14:32:40;;;;;;;3.50;1.45;;;;;;;7.12;54.08;101412.28;5494769;26;20104;-72
2024/04/21 14:35:11;;;;;;;8.73;1.52;;;;;;;7.07;55.18;101408.91;5497783;26;20459;-72
2024/04/21 14:37:42;;;;;;;4.38;1.30;;;;;;;7.13;54.83;101416.63;5502963;26;20079;-73
2024/04/21 14:40:12;;;;;;;3.58;1.33;;;;;;;7.17;54.16;101411.34;5498195;26;20541;-73
2024/04/21 14:42:42;;;;;;;5.28;1.50;;;;;;;7.27;54.01;101414.63;5506248;26;20458;-72
2024/04/21 14:45:13;;;;;;;3.08;1.60;;;;;;;7.63;53.89;101421.78;5499644;26;20003;-72
2024/04/21 14:47:54;;;;;;;4.20;1.55;;;;;;;7.75;53.98;101409.38;5502783;26;20762;-72
2024/04/21 14:50:25;;;;;;;5.47;1.52;;;;;;;7.67;55.01;101403.41;5502678;26;20067;-72
2024/04/21 14:52:56;;;;;;;3.08;1.50;;;;;;;7.58;53.96;101414.06;5499204;26;20256;-73
2024/04/21 14:55:27;;;;;;;7.25;1.55;;;;;;;7.45;55.61;101416.91;5496307;26;20370;-72
2024/04/21 14:57:57;;;;;;;3.97;1.45;;;;;;;7.15;55.05;101410.50;5502482;26;20043;-72
2024/04/21 15:00:27;;;;;;;2.97;1.30;;;;;;;6.94;53.60;101412.59;5496956;26;20022;-72
2024/04/21 15:02:58;;;;;;;2.85;1.52;;;;;;;7.16;55.05;101414.84;5483809;26;20446;-72
2024/04/21 15:05:28;;;;;;;4.20;1.42;;;;;;;7.24;54.98;101412.09;5519913;26;20015;-72
2024/04/21 15:07:59;;;;;;;3.17;1.40;;;;;;;7.34;53.82;101416.25;5512626;26;20366;-72
2024/04/21 15:10:29;;;;;;;4.20;1.52;;;;;;;7.47;53.45;101405.56;5512749;26;20101;-72
2024/04/21 15:13:00;;;;;;;3.20;1.20;;;;;;;7.59;54.68;101414.91;5506201;26;20018;-72
2024/04/21 15:15:30;;;;;;;3.90;1.45;;;;;;;7.78;52.81;101411.94;5508020;26;20011;-72
2024/04/21 15:18:01;;;;;;;3.25;1.33;;;;;;;7.95;51.93;101414.19;5505058;26;20100;-73
2024/04/21 15:20:31;;;;;;;1.70;1.25;;;;;;;7.80;52.49;101407.53;5499786;26;20373;-72
2024/04/21 15:23:01;;;;;;;2.33;1.30;;;;;;;7.48;51.74;101409.88;5508649;26;20017;-72
2024/04/21 15:25:32;;;;;;;3.00;1.30;;;;;;;7.60;52.45;101412.28;5533830;26;20082;-72
2024/04/21 15:28:02;;;;;;;2.70;1.50;;;;;;;7.12;54.74;101415.78;5501426;26;20432;-73
2024/04/21 15:30:33;;;;;;;2.13;1.23;;;;;;;7.22;nan;101414.72;5500056;26;21266;-72
2024/04/21 15:33:04;;;;;;;2.33;1.30;;;;;;;7.18;54.38;101420.03;5499179;26;20003;-72
2024/04/21 15:35:34;;;;;;;4.13;1.73;;;;;;;6.89;55.21;101415.31;5503998;26;20022;-72
2024/04/21 15:38:05;;;;;;;2.97;1.38;;;;;;;7.17;55.16;101416.53;5505758;26;21254;-72
2024/04/21 15:40:36;;;;;;;3.20;1.50;;;;;;;7.12;54.44;101417.50;5494124;26;20069;-72
2024/04/21 15:43:06;;;;;;;2.60;1.20;;;;;;;7.40;53.04;101406.56;5508613;26;20147;-73
2024/04/21 15:45:36;;;;;;;3.33;1.27;;;;;;;7.64;53.00;101413.91;5504809;26;20007;-72
2024/04/21 15:48:07;;;;;;;2.95;1.30;;;;;;;7.56;51.60;101414.97;5506159;26;20717;-73
2024/04/21 15:50:37;;;;;;;3.13;1.20;;;;;;;7.92;51.64;101409.91;5507841;26;20007;-72
2024/04/21 15:53:07;;;;;;;2.55;1.13;;;;;;;7.58;49.97;101411.44;5507653;26;20003;-73
2024/04/21 15:55:38;;;;;;;2.72;1.15;;;;;;;7.66;51.58;101404.31;5504160;26;20007;-73
2024/04/21 15:58:08;;;;;;;2.80;1.45;;;;;;;7.76;53.65;101403.28;5510478;26;20765;-74
2024/04/21 16:00:44;;;;;;;3.63;1.40;;;;;;;7.78;51.70;101411.94;5508853;26;20021;-72
2024/04/21 16:03:14;;;;;;;;;;;;;;;7.73;52.70;101407.69;5506870;26;20508;-73
2024/04/21 16:05:44;;;;;;;3.97;1.30;;;;;;;7.62;51.90;101414.84;5501613;26;19940;-72
2024/04/21 16:08:15;;;;;;;3.15;1.27;;;;;;;7.57;51.19;101419.28;5504378;26;20017;-72
2024/04/21 16:10:45;;;;;;;3.30;1.30;;;;;;;7.50;51.53;101412.47;5506030;26;20036;-73
2024/04/21 16:13:16;;;;;;;2.85;1.20;;;;;;;7.33;51.18;101412.78;5509357;26;20527;-73
2024/04/21 16:15:46;;;;;;;2.40;1.20;;;;;;;7.33;52.14;101418.00;5508205;26;20006;-72
2024/04/21 16:18:16;;;;;;;2.63;1.30;;;;;;;7.35;52.17;101415.38;5507034;26;20639;-72
2024/04/21 16:20:47;;;;;;;2.88;1.42;;;;;;;7.50;52.23;101410.72;5502137;26;20014;-73
2024/04/21 16:23:17;;;;;;;2.42;1.23;;;;;;;7.57;53.66;101417.56;5510364;26;20031;-72
2024/04/21 16:25:48;;;;;;;6.13;1.65;;;;;;;7.55;54.02;101414.09;5512748;26;20009;-72
2024/04/21 16:28:18;;;;;;;4.03;1.50;;;;;;;7.54;52.83;101424.56;5511196;26;21971;-72
2024/04/21 16:30:49;;;;;;;6.03;1.38;;;;;;;7.67;54.07;101413.00;5510230;26;21660;-72
2024/04/21 16:33:19;;;;;;;2.70;1.30;;;;;;;7.57;54.66;101419.28;5478244;26;20007;-73
2024/04/21 16:35:51;;;;;;;2.13;1.33;;;;;;;7.60;53.51;101417.50;5500018;26;20369;-72
2024/04/21 16:38:21;;;;;;;4.70;1.50;;;;;;;7.47;54.08;101418.59;5496708;26;20076;-72
2024/04/21 16:40:52;;;;;;;4.03;1.40;;;;;;;7.50;54.92;101431.59;5503504;26;20014;-72
2024/04/21 16:43:22;;;;;;;2.70;1.35;;;;;;;7.49;54.93;101418.59;5506031;26;20715;-72
2024/04/21 16:45:54;;;;;;;2.90;1.45;;;;;;;7.54;53.73;101429.81;5508385;26;20021;-72
2024/04/21 16:48:27;;;;;;;2.85;1.25;;;;;;;7.46;55.06;101429.06;5507827;26;21685;-73
2024/04/21 16:50:58;;;;;;;3.03;1.38;;;;;;;7.36;54.63;101435.38;5509552;26;20076;-73
2024/04/21 16:53:28;;;;;;;3.25;1.58;;;;;;;7.15;54.97;101433.13;5511672;26;20007;-72
2024/04/21 16:56:01;;;;;;;2.35;1.45;;;;;;;7.07;53.91;101435.00;5507108;26;20002;-73
2024/04/21 16:58:33;;;;;;;1.95;1.25;;;;;;;7.12;53.76;101433.16;5512440;26;20007;-72
2024/04/21 17:01:04;;;;;;;2.72;1.48;;;;;;;6.91;53.58;101434.41;5508936;26;20032;-73
2024/04/21 17:03:34;;;;;;;2.85;1.40;;;;;;;7.05;54.33;101432.41;5510801;26;21697;-72
2024/04/21 17:06:07;;;;;;;2.95;1.23;;;;;;;6.98;54.96;101436.00;5507147;26;20294;-72
2024/04/21 17:08:37;;;;;;;2.72;1.20;;;;;;;6.75;55.44;101439.03;5508087;26;20004;-73
2024/04/21 17:11:08;;;;;;;3.10;1.40;;;;;;;6.78;55.61;101438.97;5536465;26;20069;-73
2024/04/21 17:13:40;;;;;;;3.00;1.38;;;;;;;6.91;55.58;101443.97;5512118;26;20003;-72
2024/04/21 17:16:10;;;;;;;3.13;1.23;;;;;;;6.82;55.79;101438.03;5505322;26;20026;-73
2024/04/21 17:18:43;;;;;;;3.45;1.27;;;;;;;6.79;55.60;101444.16;5505617;26;20013;-72
2024/04/21 17:21:13;;;;;;;4.13;1.40;;;;;;;6.87;56.56;101437.94;5504175;26;20007;-73
2024/04/21 17:23:43;;;;;;;2.85;1.40;;;;;;;6.91;55.65;101444.84;5512088;26;20540;-73
2024/04/21 17:26:14;;;;;;;2.30;1.40;;;;;;;6.91;56.05;101444.84;5510732;26;20018;-72
2024/04/21 17:28:44;;;;;;;2.92;1.63;;;;;;;6.86;55.66;101446.63;5511565;26;20019;-72
2024/04/21 17:31:14;;;;;;;2.65;1.25;;;;;;;6.82;56.78;101441.53;5505908;26;20004;-72
2024/04/21 17:33:44;;;;;;;3.13;1.17;;;;;;;6.82;56.63;101444.13;5513650;26;22057;-72
2024/04/21 17:36:15;;;;;;;4.25;1.50;;;;;;;6.96;56.65;101448.22;5530687;21;20002;-71
2024/04/21 17:38:46;;;;;;;3.38;1.30;;;;;;;6.89;56.67;101443.13;5407089;26;20310;-72
2024/04/21 17:41:17;;;;;;;3.25;1.27;;;;;;;6.89;55.92;101443.13;5409602;26;20346;-72
2024/04/21 17:43:47;;;;;;;3.70;1.38;;;;;;;6.89;56.26;101443.13;5375078;26;20016;-71
2024/04/21 17:46:18;;;;;;;2.65;1.45;;;;;;;6.94;56.08;101441.31;5402304;26;20123;-71
2024/04/21 17:48:48;;;;;;;2.13;1.25;;;;;;;6.81;56.08;101439.81;5377945;26;20055;-71
2024/04/21 17:51:18;;;;;;;3.45;1.73;;;;;;;6.99;56.50;101447.31;5379494;26;20005;-71
2024/04/21 17:53:49;;;;;;;10.05;4.88;;;;;;;6.94;55.40;101449.13;5416357;26;20485;-71
2024/04/21 17:56:19;;;;;;;11.20;6.32;;;;;;;6.97;55.81;101449.94;5387426;26;20402;-71
2024/04/21 17:58:49;;;;;;;11.45;5.13;;;;;;;6.96;57.24;101449.97;5411029;26;20008;-71
2024/04/21 18:01:20;;;;;;;7.20;3.13;;;;;;;6.92;57.33;101461.34;5411441;26;20010;-71
2024/04/21 18:03:50;;;;;;;4.50;1.90;;;;;;;7.00;57.28;101455.09;5414672;26;20005;-72
2024/04/21 18:06:20;;;;;;;4.20;1.70;;;;;;;6.82;57.12;101465.84;5401813;26;20051;-71
2024/04/21 18:08:51;;;;;;;2.97;1.63;;;;;;;6.74;57.28;101472.03;5407736;26;20009;-71
2024/04/21 18:11:25;;;;;;;3.03;1.58;;;;;;;6.15;61.87;101498.06;5385033;26;20473;-72
2024/04/21 18:13:55;;;;;;;3.95;1.75;;;;;;;5.79;66.01;101501.06;5400615;26;20009;-72
2024/04/21 18:16:25;;;;;;;8.25;2.10;;;;;;;5.40;69.40;101504.06;5413236;26;20023;-72
2024/04/21 18:18:55;;;;;;;2.38;1.75;;;;;;;5.21;71.05;101497.28;5404394;26;20008;-72
2024/04/21 18:21:26;;;;;;;8.55;1.92;;;;;;;5.25;71.36;101506.78;5408031;26;21129;-72
2024/04/21 18:23:56;;;;;;;4.40;2.30;;;;;;;5.02;71.95;101510.47;5414557;26;20115;-71
2024/04/21 18:26:26;;;;;;;3.35;2.05;;;;;;;5.02;72.04;101511.31;5410629;26;20910;-69
2024/04/21 18:28:57;;;;;;;4.45;2.20;;;;;;;4.98;72.20;101507.91;5408610;26;20020;-69
2024/04/21 18:31:27;;;;;;;3.75;2.20;;;;;;;4.76;73.23;101509.78;5408780;26;20876;-70
2024/04/21 18:33:57;;;;;;;4.00;2.17;;;;;;;4.73;73.73;101514.13;5407338;26;20025;-69
2024/04/21 18:36:27;;;;;;;4.20;2.05;;;;;;;4.73;73.87;101524.50;5411000;26;20008;-68
2024/04/21 18:38:58;;;;;;;4.68;1.98;;;;;;;4.68;74.26;101524.56;5411849;26;20020;-69
2024/04/21 18:41:28;;;;;;;6.38;2.30;;;;;;;4.69;74.75;101528.00;5412404;26;20019;-69
2024/04/21 18:43:59;;;;;;;5.15;2.35;;;;;;;4.70;74.60;101527.13;5414448;26;20633;-70
2024/04/21 18:46:29;;;;;;;5.45;2.25;;;;;;;4.82;74.17;101529.66;5416824;26;20077;-70
2024/04/21 18:48:59;;;;;;;4.38;2.20;;;;;;;4.75;74.83;101536.63;5416003;26;20406;-69
2024/04/21 18:51:33;;;;;;;7.28;2.38;;;;;;;4.52;75.35;101535.03;5382735;26;20009;-70
2024/04/21 18:54:07;;;;;;;4.60;2.55;;;;;;;4.32;75.81;101548.09;5413619;26;20020;-69
2024/04/21 18:56:37;;;;;;;3.75;2.10;;;;;;;4.21;77.26;101554.22;5414970;26;20013;-69
2024/04/21 18:59:08;;;;;;;4.97;3.38;;;;;;;3.98;79.21;101556.03;5416952;26;20009;-68
2024/04/21 19:01:38;;;;;;;5.25;3.00;;;;;;;4.06;81.08;101569.81;5416740;26;20712;-69
2024/04/21 19:04:09;;;;;;;4.95;2.60;;;;;;;4.35;80.42;101560.22;5392129;26;20024;-69
2024/04/21 19:06:39;;;;;;;5.40;3.22;;;;;;;4.26;80.71;101565.47;5418908;26;20112;-69
2024/04/21 19:09:10;;;;;;;6.03;3.72;;;;;;;4.02;81.80;101575.91;5418886;26;20013;-69
2024/04/21 19:11:43;;;;;;;5.28;2.60;;;;;;;3.99;82.29;101568.97;5388343;26;20727;-69
2024/04/21 19:14:14;;;;;;;5.15;2.90;;;;;;;3.99;82.64;101578.50;5417210;26;20013;-69
2024/04/21 19:16:44;;;;;;;5.93;2.80;;;;;;;4.00;82.93;101573.34;5388996;26;20515;-69
2024/04/21 19:19:15;;;;;;;6.97;3.65;;;;;;;3.98;83.99;101577.63;5419848;26;20016;-69
2024/04/21 19:21:46;;;;;;;4.50;2.90;;;;;;;4.14;83.50;101568.09;5417252;26;20638;-69
2024/04/21 19:24:16;;;;;;;6.47;3.70;;;;;;;4.10;83.95;101579.38;5414040;26;21316;-69
2024/04/21 19:26:47;;;;;;;8.38;3.83;;;;;;;3.76;85.20;101575.09;5414866;26;20668;-69
2024/04/21 19:29:17;;;;;;;7.38;4.45;;;;;;;3.85;86.11;101583.75;5416922;26;20330;-68
2024/04/21 19:31:47;;;;;;;6.65;3.50;;;;;;;3.73;87.02;101577.69;5386779;26;20749;-69
2024/04/21 19:34:18;;;;;;;11.85;6.60;;;;;;;3.70;87.19;101580.28;5418294;26;20644;-69
2024/04/21 19:36:48;;;;;;;10.18;5.22;;;;;;;3.77;87.40;101576.84;5359086;26;20142;-70
2024/04/21 19:39:18;;;;;;;13.63;6.88;;;;;;;3.56;87.69;101577.72;5361326;26;20112;-69
2024/04/21 19:41:49;;;;;;;10.32;4.72;;;;;;;3.60;89.21;101584.63;5346783;26;20088;-69
2024/04/21 19:44:19;;;;;;;5.80;3.90;;;;;;;3.72;88.26;101575.94;5357108;26;20025;-69
2024/04/21 19:46:49;;;;;;;9.85;4.00;;;;;;;3.64;87.73;101572.53;5337464;26;21627;-72
2024/04/21 19:49:20;;;;;;;11.27;6.97;;;;;;;3.42;89.68;101571.63;5356117;26;20550;-71
2024/04/21 19:51:50;;;;;;;11.10;6.18;;;;;;;3.43;90.53;101570.75;5385431;26;20110;-72
2024/04/21 19:54:20;;;;;;;24.25;12.32;;;;;;;3.47;89.56;101571.63;5374311;26;20009;-71
2024/04/21 19:56:54;;;;;;;26.05;12.73;;;;;;;3.49;90.92;101570.81;5373941;26;20005;-71
2024/04/21 19:59:24;;;;;;;26.85;11.73;;;;;;;3.73;89.88;101569.91;5360866;26;21970;-71
2024/04/21 20:01:56;;;;;;;13.73;6.28;;;;;;;3.78;88.42;101569.03;5364924;26;21740;-71